Latest Coastal Weather Observations for Hopetoun North

IDW60701

Issued at 8:35 pm WST Wednesday 20 August 2014 (issued every 10 minutes, with the page automatically refreshed every 10 minutes)

About coastal observations | Map of coastal stations | Coastal observations for WA | Marine services | Other Formats
Station Details ID: 009961 Name: HOPETOUN NORTH Lat: -33.93 Lon: 120.13 Height: 26.0 m
Data from the previous 72 hours. | See also: Recent months at Hopetoun North
Date/Time
WST
Temp

°C
Wind Pressure Rain
since 9am
mm
Weather Cloud Vis
km
Sea
Height
m
Swell
Dir
 
Speed
knots
Gust
knots
hPa Trend Height
m
Period
s
Dir
20/08:30pm 10.2 N 5 7 1013.9 - 0.2 - - - - - - -
20/08:00pm 11.8 N 7 9 1013.9 - 0.2 - - - - - - -
20/07:30pm 12.2 N 7 10 1013.9 - 0.2 - - - - - - -
20/07:00pm 12.9 N 6 7 1013.6 - 0.2 - - - - - - -
20/06:30pm 13.3 N 4 6 1013.6 - 0.2 - - - - - - -
20/06:00pm 14.4 N 5 8 1013.6 - 0.2 - - - - - - -
20/05:30pm 15.0 NW 5 8 1013.5 - 0.2 - - - - - - -
20/05:00pm 15.5 NNW 5 7 1013.4 - 0.2 - - - - - - -
20/04:30pm 15.8 NNW 5 9 1013.3 - 0.2 - - - - - - -
20/04:00pm 16.3 NW 7 12 1013.1 - 0.2 - - - - - - -
20/03:30pm 16.7 NNW 5 10 1012.8 - 0.2 - - - - - - -
20/03:00pm 16.6 NNW 7 10 1012.9 - 0.2 - - - - - - -
20/02:30pm 16.5 NW 8 13 1013.2 - 0.2 - - - - - - -
20/02:00pm 17.3 S 4 7 1012.9 - 0.2 - - - - - - -
20/01:30pm 15.0 ESE 6 8 1013.0 - 0.2 - - - - - - -
20/01:00pm 16.2 SSE 4 6 1013.1 - 0.2 - - - - - - -
20/12:30pm 15.6 SSE 5 7 1013.4 - 0.2 - - - - - - -
20/12:00pm 15.4 SSE 5 9 1013.9 - 0.2 Recent precip. - - - - - -
20/11:30am 15.9 SSE 5 8 1014.3 - 0.2 - - - - - - -
20/11:00am 17.0 W 3 7 1014.6 - 0.0 - - - - - - -
20/10:30am 16.8 NW 7 11 1015.1 - 0.0 - - - - - - -
20/10:00am 15.1 N 6 9 1015.2 - 0.0 - - - - - - -
20/09:30am 14.1 N 5 7 1015.6 - 0.0 - - - - - - -
20/09:00am 12.2 N 6 8 1015.6 - 3.8 - - - - - - -
20/08:30am 11.1 N 6 10 1015.9 - 3.8 - - - - - - -
20/08:00am 9.2 N 5 8 1015.7 - 3.8 - - - - - - -
20/07:30am 8.1 N 6 8 1015.5 - 3.8 - - - - - - -
20/07:00am 6.9 N 4 6 1015.2 - 3.8 - - - - - - -
20/06:30am 6.4 N 5 7 1015.1 - 3.8 - - - - - - -
20/06:00am 6.9 N 7 11 1014.8 - 3.8 - - - - - - -
20/05:30am 6.8 NNW 5 8 1014.9 - 3.8 - - - - - - -
20/05:00am 7.0 N 5 8 1015.0 - 3.8 - - - - - - -
20/04:30am 7.1 N 5 6 1014.8 - 3.8 - - - - - - -
20/04:00am 7.3 N 6 8 1014.9 - 3.8 - - - - - - -
20/03:30am 6.9 N 6 8 1015.0 - 3.8 - - - - - - -
20/03:00am 6.0 NNE 3 4 1015.2 - 3.6 - - - - - - -
20/02:30am 6.4 N 4 7 1015.5 - 3.6 - - - - - - -
20/02:00am 5.1 NE 6 7 1015.6 - 3.6 - - - - - - -
20/01:30am 5.0 NE 6 7 1015.8 - 3.6 - - - - - - -
20/01:00am 5.5 NE 5 6 1015.9 - 3.6 - - - - - - -
20/12:30am 5.9 NNE 4 5 1016.1 - 3.6 - - - - - - -
20/12:00am 6.3 NE 4 6 1015.9 - 3.6 - - - - - - -
 
Date/Time
WST
Temp

°C
Wind Pressure Rain
since 9am
mm
Weather Cloud Vis
km
Sea
Height
m
Swell
Dir
 
Speed
knots
Gust
knots
hPa Trend Height
m
Period
s
Dir
19/11:30pm 6.4 NNE 5 5 1016.0 - 3.6 - - - - - - -
19/11:00pm 6.4 NE 6 7 1015.8 - 3.6 - - - - - - -
19/10:30pm 6.7 NE 5 6 1016.2 - 3.6 - - - - - - -
19/10:00pm 7.0 NE 6 7 1016.2 - 3.6 - - - - - - -
19/09:30pm 7.3 NE 5 7 1016.3 - 3.6 - - - - - - -
19/09:00pm 8.2 ENE 7 7 1016.3 - 3.6 - - - - - - -
19/08:30pm 9.0 NE 5 6 1016.5 - 3.6 - - - - - - -
19/08:00pm 10.4 ENE 5 7 1016.4 - 3.6 - - - - - - -
19/07:30pm 10.6 ENE 5 6 1016.3 - 3.6 - - - - - - -
19/07:00pm 11.2 ENE 6 9 1016.0 - 3.6 - - - - - - -
19/06:30pm 11.7 E 6 8 1015.8 - 3.6 - - - - - - -
19/06:00pm 12.2 ESE 6 8 1015.3 - 3.6 - - - - - - -
19/05:30pm 12.7 ESE 5 7 1015.0 - 3.6 - - - - - - -
19/05:00pm 13.5 ESE 6 9 1014.7 - 3.6 - - - - - - -
19/04:30pm 14.1 ESE 6 10 1014.5 - 3.6 - - - - - - -
19/04:00pm 14.3 SE 7 10 1014.2 - 3.6 - - - - - - -
19/03:30pm 14.1 ESE 6 8 1014.2 - 3.6 - - - - - - -
19/03:00pm 15.1 ESE 7 10 1014.3 - 3.6 - - - - - - -
19/02:30pm 13.4 SE 5 7 1014.4 - 3.6 - - - - - - -
19/02:00pm 13.1 SE 7 10 1014.1 - 3.6 - - - - - - -
19/01:30pm 13.6 ESE 7 10 1014.0 - 3.6 - - - - - - -
19/01:00pm 13.9 E 7 10 1014.1 - 3.6 - - - - - - -
19/12:30pm 12.9 SE 6 9 1014.3 - 3.6 - - - - - - -
19/12:00pm 12.2 SE 6 7 1014.8 - 0.6 Rain - - - - - -
19/11:30am 12.5 SE 6 8 1015.1 - 0.0 - - - - - - -
19/11:00am 14.9 NE 2 4 1015.2 - 0.0 - - - - - - -
19/10:30am 12.7 N 3 5 1015.6 - 0.0 - - - - - - -
19/10:00am 13.7 N 3 5 1015.6 - 0.0 - - - - - - -
19/09:30am 13.1 N 5 7 1015.8 - 0.0 - - - - - - -
19/09:00am 12.3 NNE 5 7 1015.6 - 3.2 - - - - - - -
19/08:30am 11.2 NE 4 5 1015.5 - 3.2 - - - - - - -
19/08:00am 10.1 NNE 3 4 1015.3 - 3.2 - - - - - - -
19/07:30am 9.4 NE 3 4 1015.1 - 3.2 - - - - - - -
19/07:00am 8.9 NE 4 5 1014.7 - 3.2 - - - - - - -
19/06:30am 9.0 NNE 3 4 1014.4 - 3.2 - - - - - - -
19/06:00am 9.3 NNW 4 7 1014.3 - 3.0 - - - - - - -
19/05:30am 8.9 NNE 5 7 1014.1 - 3.0 - - - - - - -
19/05:00am 8.1 NE 5 6 1014.1 - 3.0 - - - - - - -
19/04:30am 7.9 NNE 4 5 1014.0 - 3.0 - - - - - - -
19/04:00am 8.4 NE 4 5 1014.0 - 3.0 - - - - - - -
19/03:30am 8.7 N 2 3 1013.9 - 3.0 - - - - - - -
19/03:00am 8.9 N 3 5 1013.9 - 3.0 - - - - - - -
19/02:30am 9.1 NNE 5 7 1014.0 - 3.0 - - - - - - -
19/02:00am 9.4 N 6 8 1013.9 - 3.0 - - - - - - -
19/01:30am 10.0 N 6 8 1014.3 - 3.0 - - - - - - -
19/01:00am 9.8 NE 6 7 1014.3 - 3.0 - - - - - - -
19/12:30am 10.2 NNE 6 8 1014.5 - 3.0 - - - - - - -
19/12:00am 10.4 N 5 8 1014.7 - 2.6 Recent precip. - - - - - -
 
Date/Time
WST
Temp

°C
Wind Pressure Rain
since 9am
mm
Weather Cloud Vis
km
Sea
Height
m
Swell
Dir
 
Speed
knots
Gust
knots
hPa Trend Height
m
Period
s
Dir
18/11:30pm 10.3 N 3 5 1015.0 - 2.0 - - - - - - -
18/11:00pm 10.0 NNE 4 5 1015.0 - 1.4 - - - - - - -
18/10:30pm 10.2 N 3 4 1015.1 - 1.4 - - - - - - -
18/10:00pm 10.7 N 6 9 1015.3 - 1.4 - - - - - - -
18/09:30pm 10.8 N 7 10 1015.3 - 0.6 - - - - - - -
18/09:00pm 11.0 NNW 5 8 1015.1 - 0.4 Recent precip. - - - - - -
18/08:30pm 11.9 NNW 4 5 1015.1 - 0.0 - - - - - - -
18/08:00pm 12.7 N 5 7 1014.8 - 0.0 - - - - - - -
18/07:30pm 12.7 N 5 6 1014.5 - 0.0 - - - - - - -
18/07:00pm 12.7 N 6 8 1014.2 - 0.0 - - - - - - -
18/06:30pm 13.2 N 6 11 1014.0 - 0.0 - - - - - - -
18/06:00pm 13.6 NNW 10 14 1013.7 - 0.0 - - - - - - -
18/05:30pm 15.8 N 8 17 1013.3 - 0.0 - - - - - - -
18/05:00pm 16.5 NNW 8 14 1012.7 - 0.0 - - - - - - -
18/04:30pm 16.9 NNW 8 12 1012.3 - 0.0 - - - - - - -
18/04:00pm 18.0 N 11 16 1012.0 - 0.0 - - - - - - -
18/03:30pm 18.5 N 14 19 1011.8 - 0.0 - - - - - - -
18/03:00pm 18.2 N 12 20 1012.1 - 0.0 - - - - - - -
18/02:30pm 17.1 N 14 21 1012.5 - 0.0 - - - - - - -
18/02:00pm 16.6 N 14 19 1012.8 - 0.0 - - - - - - -
18/01:36pm 16.3 N 15 25 1013.0 - 0.0 - - - - - - -
18/01:30pm 16.3 N 15 21 1013.0 - 0.0 - - - - - - -
18/01:00pm 17.2 N 12 23 1013.2 - 0.0 - - - - - - -
18/12:30pm 17.2 N 11 18 1013.3 - 0.0 - - - - - - -
18/12:00pm 16.0 N 13 23 1014.1 - 0.0 - - - - - - -
18/11:30am 15.0 NE 7 10 1014.6 - 0.0 - - - - - - -
18/11:00am 14.4 NE 7 9 1015.3 - 0.0 - - - - - - -
18/10:30am 14.4 N 4 6 1015.9 - 0.0 - - - - - - -
18/10:00am 13.8 NNE 3 6 1016.0 - 0.0 - - - - - - -
18/09:30am 13.5 N 2 5 1016.3 - 0.0 - - - - - - -
18/09:00am 13.4 N 3 5 1016.8 - 0.0 - - - - - - -
18/08:30am 13.5 N 1 2 1015.9 - 0.0 - - - - - - -
18/08:00am 13.9 NW 5 8 1016.0 - 0.0 - - - - - - -
18/07:30am 13.6 NNW 5 8 1015.5 - 0.0 - - - - - - -
18/07:00am 13.4 N 5 7 1015.1 - 0.0 - - - - - - -
18/06:30am 13.6 NNE 4 7 1014.6 - 0.0 - - - - - - -
18/06:00am 14.0 N 5 7 1014.4 - 0.0 - - - - - - -
18/05:30am 14.8 N 7 10 1014.2 - 0.0 - - - - - - -
18/05:00am 15.6 N 10 14 1014.1 - 0.0 - - - - - - -
18/04:30am 15.3 N 8 14 1013.7 - 0.0 - - - - - - -
18/04:00am 14.4 NNE 8 10 1013.5 - 0.0 - - - - - - -
18/03:30am 13.9 NE 6 10 1013.4 - 0.0 - - - - - - -
18/03:00am 13.3 NNE 5 6 1013.6 - 0.0 - - - - - - -
18/02:30am 13.4 NNE 5 6 1014.1 - 0.0 - - - - - - -
18/02:00am 13.3 N 6 7 1014.7 - 0.0 - - - - - - -
18/01:30am 13.0 N 6 8 1014.8 - 0.0 - - - - - - -
18/01:00am 12.4 NNE 7 8 1014.9 - 0.0 - - - - - - -
18/12:30am 12.1 NNE 7 8 1015.2 - 0.0 - - - - - - -
18/12:00am 11.4 NNE 5 6 1015.5 - 0.0 - - - - - - -
 
Date/Time
WST
Temp

°C
Wind Pressure Rain
since 9am
mm
Weather Cloud Vis
km
Sea
Height
m
Swell
Dir
 
Speed
knots
Gust
knots
hPa Trend Height
m
Period
s
Dir
17/11:30pm 11.2 NNE 5 6 1015.9 - 0.0 - - - - - - -
17/11:00pm 11.7 NNE 8 9 1016.3 - 0.0 - - - - - - -
17/10:30pm 11.7 NE 8 9 1016.6 - 0.0 - - - - - - -
17/10:00pm 11.5 NNE 7 8 1017.1 - 0.0 - - - - - - -
17/09:30pm 11.5 NNE 6 7 1017.4 - 0.0 - - - - - - -
17/09:00pm 12.0 NNE 7 8 1017.5 - 0.0 - - - - - - -

Other Formats:

Comma delimited format used in spreadsheet applications
http://www.bom.gov.au/fwo/IDW60701/IDW60701.95635.axf

JavaScript Object Notation format (JSON) in row-major order
http://www.bom.gov.au/fwo/IDW60701/IDW60701.95635.json